Fuquay Varina, NC

1:01 AM EST on December 29, 2014 (GMT -0500)
Ashford Village | Change Station
CLOSE
Current Station
Personal Weather Station
Location: Fuquay Varina, NC
Elevation: 476 ft
Nearby Weather Stations
Active Advisory: Special Statement

Elev 476 ft 35.61 °N, 78.80 °W | Updated 219 days ago

Rain
Rain
55 °F
Feels Like 55 °F
N
3
Wind Variable Wind from North
Gusts mph

Today
High -- | Low -- °F
--% Chance of Precip.
Yesterday
High -- | Low -- °F
Precip. -- in
7:24 AM 5:10 PM
First Quarter, 55% visible
Pressure 30.05 in
Visibility 0.2 miles
Clouds Overcast 100 ft
Dew Point 52 °F
Humidity 86%
Rainfall 0.00 in
Snow Depth Not available.
UV 0 out of 12
Pollen .20 out of 12
Air Quality Not available.
Flu Activity Not available.
METAR KHRJ 290555Z AUTO 00000KT 1/4SM FG OVC001 11/11 A3005 RMK AO2 T01110111 10155 20110 401700080

More Conditions Fewer Conditions

Pressure 30.05 in
Visibility 0.2 miles
Clouds Overcast 100 ft
Dew Point 52 °F
Humidity 86%
Rainfall 0.00 in
Snow Depth Not available.
UV 0 out of 12
Pollen .20 out of 12
Air Quality Not available.
Flu Activity Not available.
METAR KHRJ 290555Z AUTO 00000KT 1/4SM FG OVC001 11/11 A3005 RMK AO2 T01110111 10155 20110 401700080

More Conditions Fewer Conditions

10-Day Weather Forecast

Almanac

Astronomy

Dec. 29, 2014 Rise Set
Actual Time
Civil Twilight
Nautical Twilight
Astronomical Twilight
Moon
Length of Visible Light
Length of Day
Tomorrow will be .
, % of the Moon is Illuminated

Today's Extremes

State Highs State Lows

Community

WunderPhotos

Upload Photos

1,781,544 photos uploaded!

WunderBlogs® & News

Nearby

Air Quality

  Air Quality AQ Index Pollutant
Not available.

Snow Depth

Station Depth Elevation

Earthquake Activity

City Distance Mag. Time & Date
Minimum magnitude displayed is 2.5.

Coastal Water Temperatures

Place Temperature

Nearby Weather Stations